Time;durP1;ratioP1;P1;durP2;ratioP2;P2;SDS_P1;SDS_P2;PMS_P1;PMS_P2;Temp;Humidity;BMP_temperature;BMP_pressure;BME280_temperature;BME280_humidity;BME280_pressure;Samples;Min_cycle;Max_cycle;Signal;HPM_P1;HPM_P2
2022/12/09 00:00:14;;;;;;;;;;;4.60;99.90;;;;;;5053734;28;19938;-64
2022/12/09 00:02:39;;;;;;;;;;;4.40;99.90;;;;;;5068864;28;20359;-64
2022/12/09 00:05:05;;;;;;;;;;;4.30;99.90;;;;;;5060635;28;20292;-64
2022/12/09 00:07:30;;;;;;;;;;;4.20;99.90;;;;;;5059156;28;19940;-64
2022/12/09 00:09:56;;;;;;;;;;;4.10;99.90;;;;;;5055939;28;20307;-64
2022/12/09 00:12:21;;;;;;;;;;;4.10;99.90;;;;;;5056611;28;20008;-64
2022/12/09 00:14:47;;;;;;;;;;;4.00;99.90;;;;;;5054879;28;19920;-64
2022/12/09 00:17:12;;;;;;;;;;;3.90;99.90;;;;;;5053809;28;20504;-64
2022/12/09 00:19:38;;;;;;;;;;;4.10;99.90;;;;;;5059037;28;19920;-65
2022/12/09 00:22:03;;;;;;;;;;;4.00;99.90;;;;;;5058481;28;19928;-65
2022/12/09 00:24:29;;;;;;;;;;;4.00;99.90;;;;;;5055510;28;19916;-65
2022/12/09 00:26:54;;;;;;;;;;;4.10;99.90;;;;;;5055386;28;19912;-64
2022/12/09 00:29:19;;;;;;;;;;;4.00;99.90;;;;;;5053807;28;20419;-64
2022/12/09 00:31:45;;;;;;;;;;;4.00;99.90;;;;;;5061530;28;19916;-62
2022/12/09 00:34:11;;;;;;;;;;;4.20;99.90;;;;;;5079794;28;19913;-63
2022/12/09 00:36:37;;;;;;;;;;;4.40;99.90;;;;;;5061817;28;19916;-63
2022/12/09 00:39:03;;;;;;;;;;;4.20;99.90;;;;;;5063764;28;20386;-64
2022/12/09 00:41:29;;;;;;;;;;;4.10;99.90;;;;;;5058874;28;20005;-64
2022/12/09 00:43:54;;;;;;;;;;;3.90;99.90;;;;;;5056921;28;20070;-63
2022/12/09 00:46:20;;;;;;;;;;;3.90;99.90;;;;;;5062326;28;19924;-64
2022/12/09 00:48:46;;;;;;;;;;;3.90;99.90;;;;;;5061039;28;19943;-64
2022/12/09 00:51:13;;;;;;;;;;;4.00;99.90;;;;;;5058038;28;19950;-64
2022/12/09 00:53:38;;;;;;;;;;;4.10;99.90;;;;;;5059980;28;19920;-64
2022/12/09 00:56:04;;;;;;;;;;;4.20;99.90;;;;;;5059744;28;19917;-64
2022/12/09 00:58:30;;;;;;;;;;;4.30;99.90;;;;;;5059744;28;19912;-64
2022/12/09 01:00:55;;;;;;;;;;;4.30;99.90;;;;;;5058080;28;19954;-64
2022/12/09 01:03:21;;;;;;;;;;;4.00;99.90;;;;;;5057281;28;20367;-64
2022/12/09 01:05:46;;;;;;;;;;;4.10;99.90;;;;;;5060404;28;19970;-64
2022/12/09 01:08:12;;;;;;;;;;;4.10;99.90;;;;;;5058014;28;20363;-64
2022/12/09 01:10:38;;;;;;;;;;;4.00;99.90;;;;;;5058761;28;20015;-64
2022/12/09 01:13:04;;;;;;;;;;;4.00;99.90;;;;;;5059741;28;19923;-63
2022/12/09 01:15:29;;;;;;;;;;;4.00;99.90;;;;;;5054973;28;20676;-64
2022/12/09 01:17:55;;;;;;;;;;;3.80;99.90;;;;;;5056956;28;19916;-64
2022/12/09 01:20:20;;;;;;;;;;;3.70;99.90;;;;;;5058718;28;19920;-64
2022/12/09 01:22:46;;;;;;;;;;;3.70;99.90;;;;;;5059354;28;19920;-63
2022/12/09 01:25:12;;;;;;;;;;;3.90;99.90;;;;;;5058490;28;19967;-63
2022/12/09 01:27:37;;;;;;;;;;;;;;;;;;5054637;28;19963;-64
2022/12/09 01:30:03;;;;;;;;;;;4.20;99.90;;;;;;5061829;28;20595;-64
2022/12/09 01:32:29;;;;;;;;;;;4.30;99.90;;;;;;5059821;28;19928;-63
2022/12/09 01:34:54;;;;;;;;;;;4.00;99.90;;;;;;5059838;28;19916;-64
2022/12/09 01:37:20;;;;;;;;;;;4.30;99.90;;;;;;5056449;28;20015;-64
2022/12/09 01:39:45;;;;;;;;;;;4.30;99.90;;;;;;5058576;28;20531;-63
2022/12/09 01:42:18;;;;;;;;;;;3.80;99.90;;;;;;5058146;28;19912;-64
2022/12/09 01:45:03;;;;;;;;;;;4.00;99.90;;;;;;5058777;28;19972;-63
2022/12/09 01:47:28;;;;;;;;;;;4.20;99.90;;;;;;5056707;28;19974;-64
2022/12/09 01:49:54;;;;;;;;;;;4.20;99.90;;;;;;5059458;28;19916;-63
2022/12/09 01:52:21;;;;;;;;;;;4.10;99.90;;;;;;5056595;28;19917;-63
2022/12/09 01:54:47;;;;;;;;;;;4.20;99.90;;;;;;5057979;28;19966;-63
2022/12/09 01:57:14;;;;;;;;;;;4.20;99.90;;;;;;5055175;28;20382;-63
2022/12/09 01:59:40;;;;;;;;;;;4.00;99.90;;;;;;5055310;28;19916;-63
2022/12/09 02:02:06;;;;;;;;;;;4.30;99.90;;;;;;5056968;28;19917;-63
2022/12/09 02:04:35;;;;;;;;;;;4.40;99.90;;;;;;5059679;28;19921;-64
2022/12/09 02:07:02;;;;;;;;;;;4.20;99.90;;;;;;5059566;28;19916;-63
2022/12/09 02:09:28;;;;;;;;;;;3.90;99.90;;;;;;5056715;28;20003;-63
2022/12/09 02:11:59;;;;;;;;;;;3.80;99.90;;;;;;5057665;28;19999;-64
2022/12/09 02:14:38;;;;;;;;;;;3.70;99.90;;;;;;5055346;28;19923;-64
2022/12/09 02:17:06;;;;;;;;;;;3.60;99.90;;;;;;5055562;28;19920;-64
2022/12/09 02:19:34;;;;;;;;;;;3.70;99.90;;;;;;5057983;28;19967;-63
2022/12/09 02:22:00;;;;;;;;;;;3.60;99.90;;;;;;5057665;28;19920;-64
2022/12/09 02:24:40;;;;;;;;;;;3.70;99.90;;;;;;5054877;28;19939;-63
2022/12/09 02:27:15;;;;;;;;;;;3.80;99.90;;;;;;5059145;28;20642;-63
2022/12/09 02:29:51;;;;;;;;;;;3.70;99.90;;;;;;5062607;28;20399;-64
2022/12/09 02:32:28;;;;;;;;;;;3.70;99.90;;;;;;5060307;28;20437;-64
2022/12/09 02:34:56;;;;;;;;;;;3.70;99.90;;;;;;5061066;28;20528;-63
2022/12/09 02:37:23;;;;;;;;;;;3.70;99.90;;;;;;5061630;28;19925;-64
2022/12/09 02:39:51;;;;;;;;;;;3.80;99.90;;;;;;5066206;28;19912;-64
2022/12/09 02:42:18;;;;;;;;;;;3.90;99.90;;;;;;5057502;28;19956;-64
2022/12/09 02:44:46;;;;;;;;;;;3.90;99.90;;;;;;5061433;28;19916;-63
2022/12/09 02:47:14;;;;;;;;;;;3.90;99.90;;;;;;5061273;28;20000;-64
2022/12/09 02:49:40;;;;;;;;;;;3.90;99.90;;;;;;5060073;28;19917;-64
2022/12/09 02:52:06;;;;;;;;;;;3.80;99.90;;;;;;5063227;28;19980;-64
2022/12/09 02:54:32;;;;;;;;;;;3.80;99.90;;;;;;5055882;28;20818;-64
2022/12/09 02:57:01;;;;;;;;;;;3.80;99.90;;;;;;5060332;28;19912;-63
2022/12/09 02:59:27;;;;;;;;;;;3.80;99.90;;;;;;5056887;28;20335;-65
2022/12/09 03:02:18;;;;;;;;;;;3.60;99.90;;;;;;5057726;28;19948;-64
2022/12/09 03:04:46;;;;;;;;;;;3.50;99.90;;;;;;5059154;28;20415;-63
2022/12/09 03:07:25;;;;;;;;;;;3.40;99.90;;;;;;5058344;28;19912;-64
2022/12/09 03:09:54;;;;;;;;;;;3.40;99.90;;;;;;5061493;28;19920;-63
2022/12/09 03:12:20;;;;;;;;;;;3.40;99.90;;;;;;5058772;28;20212;-63
2022/12/09 03:14:48;;;;;;;;;;;3.50;99.90;;;;;;5059548;28;19923;-64
2022/12/09 03:17:19;;;;;;;;;;;3.50;99.90;;;;;;5058673;28;19916;-64
2022/12/09 03:19:48;;;;;;;;;;;3.50;99.90;;;;;;5061596;28;20007;-64
2022/12/09 03:22:15;;;;;;;;;;;3.60;99.90;;;;;;5063187;28;19924;-64
2022/12/09 03:24:43;;;;;;;;;;;3.50;99.90;;;;;;5056366;28;19923;-64
2022/12/09 03:27:09;;;;;;;;;;;3.60;99.90;;;;;;5055472;28;19912;-64
2022/12/09 03:29:39;;;;;;;;;;;3.50;99.90;;;;;;5059648;28;19919;-64
2022/12/09 03:32:07;;;;;;;;;;;3.50;99.90;;;;;;5061445;28;20364;-64
2022/12/09 03:34:35;;;;;;;;;;;3.50;99.90;;;;;;5060161;28;19982;-64
2022/12/09 03:37:01;;;;;;;;;;;3.60;99.90;;;;;;5057155;28;20289;-66
2022/12/09 03:39:29;;;;;;;;;;;3.40;99.90;;;;;;5060952;28;19916;-64
2022/12/09 03:41:56;;;;;;;;;;;3.50;99.90;;;;;;5055703;28;20316;-64
2022/12/09 03:44:29;;;;;;;;;;;3.50;99.90;;;;;;5057077;28;19959;-64
2022/12/09 03:46:55;;;;;;;;;;;3.50;99.90;;;;;;5059582;28;19921;-65
2022/12/09 03:49:20;;;;;;;;;;;3.50;99.90;;;;;;5054343;28;19924;-64
2022/12/09 03:51:53;;;;;;;;;;;3.40;99.90;;;;;;5056716;28;19995;-64
2022/12/09 03:54:23;;;;;;;;;;;3.50;99.90;;;;;;5053347;28;19967;-64
2022/12/09 03:56:52;;;;;;;;;;;3.70;99.90;;;;;;5056633;28;19924;-64
2022/12/09 03:59:18;;;;;;;;;;;3.70;99.90;;;;;;5058982;28;19919;-63
2022/12/09 04:01:44;;;;;;;;;;;3.80;99.90;;;;;;5057705;28;19920;-64
2022/12/09 04:04:10;;;;;;;;;;;3.70;99.90;;;;;;5060719;28;19951;-64
2022/12/09 04:06:35;;;;;;;;;;;3.80;99.90;;;;;;5055865;28;19952;-64
2022/12/09 04:09:01;;;;;;;;;;;3.70;99.90;;;;;;5056445;28;19943;-64
2022/12/09 04:11:27;;;;;;;;;;;3.50;99.90;;;;;;5055785;28;19916;-64
2022/12/09 04:13:52;;;;;;;;;;;3.70;99.90;;;;;;5065202;28;20366;-64
2022/12/09 04:16:18;;;;;;;;;;;3.60;99.90;;;;;;5054194;28;19913;-63
2022/12/09 04:18:43;;;;;;;;;;;4.00;99.90;;;;;;5054110;28;19975;-64
2022/12/09 04:21:10;;;;;;;;;;;3.70;99.90;;;;;;5056532;28;19935;-64
2022/12/09 04:23:36;;;;;;;;;;;3.70;99.90;;;;;;5057416;28;19944;-64
2022/12/09 04:26:02;;;;;;;;;;;4.10;99.90;;;;;;5056389;28;19927;-63
2022/12/09 04:28:27;;;;;;;;;;;4.10;99.90;;;;;;5052567;28;19912;-63
2022/12/09 04:30:53;;;;;;;;;;;3.90;99.90;;;;;;5058883;28;19935;-64
2022/12/09 04:33:18;;;;;;;;;;;3.90;99.90;;;;;;5059603;28;19982;-63
2022/12/09 04:35:43;;;;;;;;;;;3.80;99.90;;;;;;5063213;28;19920;-64
2022/12/09 04:38:09;;;;;;;;;;;3.60;99.90;;;;;;5059200;28;19970;-64
2022/12/09 04:40:35;;;;;;;;;;;3.80;99.90;;;;;;5058236;28;20261;-64
2022/12/09 04:43:00;;;;;;;;;;;3.90;99.90;;;;;;5059552;28;19924;-64
2022/12/09 04:45:26;;;;;;;;;;;3.70;99.90;;;;;;5059210;28;20436;-63
2022/12/09 04:47:52;;;;;;;;;;;3.50;99.90;;;;;;5059414;28;19920;-63
2022/12/09 04:50:17;;;;;;;;;;;3.80;99.90;;;;;;5059530;28;20492;-63
2022/12/09 04:52:43;;;;;;;;;;;3.90;99.90;;;;;;5055379;28;19919;-63
2022/12/09 04:55:08;;;;;;;;;;;3.80;99.90;;;;;;5059204;28;19920;-64
2022/12/09 04:57:34;;;;;;;;;;;3.90;99.90;;;;;;5059123;28;20435;-63
2022/12/09 04:59:59;;;;;;;;;;;4.10;99.90;;;;;;5058123;28;19917;-64
2022/12/09 05:02:25;;;;;;;;;;;4.30;99.90;;;;;;5058837;28;19917;-64
2022/12/09 05:04:50;;;;;;;;;;;4.40;99.90;;;;;;5055008;28;19921;-63
2022/12/09 05:07:16;;;;;;;;;;;4.00;99.90;;;;;;5058320;28;19928;-64
2022/12/09 05:09:41;;;;;;;;;;;3.80;99.90;;;;;;5059402;28;19917;-64
2022/12/09 05:12:07;;;;;;;;;;;3.70;99.90;;;;;;5057008;28;20327;-64
2022/12/09 05:14:32;;;;;;;;;;;3.50;99.90;;;;;;5058510;28;19966;-63
2022/12/09 05:16:58;;;;;;;;;;;3.40;99.90;;;;;;5058180;28;20007;-63
2022/12/09 05:19:23;;;;;;;;;;;3.50;99.90;;;;;;5059505;28;19913;-64
2022/12/09 05:21:49;;;;;;;;;;;3.60;99.90;;;;;;5058402;28;19928;-64
2022/12/09 05:24:14;;;;;;;;;;;3.50;99.90;;;;;;5057605;28;20400;-64
2022/12/09 05:26:42;;;;;;;;;;;3.60;99.90;;;;;;5056541;28;20147;-63
2022/12/09 05:29:07;;;;;;;;;;;3.60;99.90;;;;;;5057546;28;20007;-64
2022/12/09 05:31:33;;;;;;;;;;;3.90;99.90;;;;;;5057942;28;19917;-64
2022/12/09 05:33:58;;;;;;;;;;;3.70;99.90;;;;;;5057118;28;19916;-64
2022/12/09 05:36:26;;;;;;;;;;;3.70;99.90;;;;;;5057634;28;19963;-64
2022/12/09 05:38:52;;;;;;;;;;;3.70;99.90;;;;;;5056309;28;20404;-64
2022/12/09 05:41:17;;;;;;;;;;;3.70;99.90;;;;;;5058311;28;19939;-64
2022/12/09 05:43:43;;;;;;;;;;;4.00;99.90;;;;;;5058725;28;19927;-64
2022/12/09 05:46:09;;;;;;;;;;;3.90;99.90;;;;;;5058619;28;19920;-64
2022/12/09 05:48:35;;;;;;;;;;;3.70;99.90;;;;;;5057331;28;19921;-64
2022/12/09 05:51:01;;;;;;;;;;;3.50;99.90;;;;;;5057114;28;19917;-64
2022/12/09 05:53:27;;;;;;;;;;;3.50;99.90;;;;;;5057589;28;19920;-64
2022/12/09 05:55:53;;;;;;;;;;;3.60;99.90;;;;;;5057777;28;19920;-64
2022/12/09 05:58:18;;;;;;;;;;;3.70;99.90;;;;;;5057191;28;20280;-64
2022/12/09 06:00:44;;;;;;;;;;;3.80;99.90;;;;;;5053137;28;19923;-64
2022/12/09 06:03:09;;;;;;;;;;;3.80;99.90;;;;;;5057978;28;20007;-64
2022/12/09 06:05:35;;;;;;;;;;;3.90;99.90;;;;;;5057615;28;19924;-64
2022/12/09 06:08:01;;;;;;;;;;;4.10;99.90;;;;;;5054976;28;19923;-64
2022/12/09 06:10:26;;;;;;;;;;;4.00;99.90;;;;;;5053889;28;19925;-64
2022/12/09 06:12:52;;;;;;;;;;;4.00;99.90;;;;;;5056864;28;20311;-64
2022/12/09 06:15:18;;;;;;;;;;;3.80;99.90;;;;;;5057038;28;19962;-64
2022/12/09 06:17:43;;;;;;;;;;;3.70;99.90;;;;;;5055721;28;19929;-64
2022/12/09 06:20:09;;;;;;;;;;;3.80;99.90;;;;;;5057260;28;20418;-64
2022/12/09 06:22:34;;;;;;;;;;;3.80;99.90;;;;;;5051794;28;19936;-64
2022/12/09 06:25:00;;;;;;;;;;;3.90;99.90;;;;;;5059537;28;19921;-65
2022/12/09 06:27:25;;;;;;;;;;;3.80;99.90;;;;;;5056604;28;19916;-64
2022/12/09 06:29:51;;;;;;;;;;;3.70;99.90;;;;;;5060166;28;19969;-64
2022/12/09 06:32:16;;;;;;;;;;;3.70;99.90;;;;;;5054931;28;19920;-64
2022/12/09 06:34:42;;;;;;;;;;;3.70;99.90;;;;;;5056218;28;19917;-64
2022/12/09 06:37:07;;;;;;;;;;;3.70;99.90;;;;;;5048273;28;19916;-64
2022/12/09 06:39:33;;;;;;;;;;;3.70;99.90;;;;;;5070673;28;19940;-64
2022/12/09 06:41:58;;;;;;;;;;;3.70;99.90;;;;;;5056585;28;19924;-64
2022/12/09 06:44:24;;;;;;;;;;;3.60;99.90;;;;;;5056258;28;20336;-64
2022/12/09 06:46:49;;;;;;;;;;;3.60;99.90;;;;;;5055753;28;19955;-64
2022/12/09 06:49:15;;;;;;;;;;;3.60;99.90;;;;;;5055064;28;20331;-64
2022/12/09 06:51:40;;;;;;;;;;;3.60;99.90;;;;;;5057025;28;19912;-64
2022/12/09 06:54:05;;;;;;;;;;;3.50;99.90;;;;;;5058516;28;19916;-64
2022/12/09 06:56:31;;;;;;;;;;;3.60;99.90;;;;;;5053789;28;20570;-64
2022/12/09 06:58:57;;;;;;;;;;;3.50;99.90;;;;;;5056945;28;19920;-64
2022/12/09 07:01:23;;;;;;;;;;;3.50;99.90;;;;;;5058094;28;20412;-64
2022/12/09 07:03:50;;;;;;;;;;;3.50;99.90;;;;;;5053627;28;19962;-65
2022/12/09 07:06:19;;;;;;;;;;;3.30;99.90;;;;;;5052243;28;19949;-64
2022/12/09 07:08:44;;;;;;;;;;;3.40;99.90;;;;;;5057751;28;19921;-64
2022/12/09 07:11:10;;;;;;;;;;;3.40;99.90;;;;;;5057439;28;19935;-64
2022/12/09 07:13:35;;;;;;;;;;;3.50;99.90;;;;;;5061381;28;19912;-65
2022/12/09 07:16:01;;;;;;;;;;;3.50;99.90;;;;;;5057190;28;20011;-64
2022/12/09 07:18:26;;;;;;;;;;;3.50;99.90;;;;;;5058075;28;19913;-65
2022/12/09 07:20:52;;;;;;;;;;;3.50;99.90;;;;;;5056050;28;19917;-65
2022/12/09 07:23:17;;;;;;;;;;;3.70;99.90;;;;;;5057703;28;19924;-64
2022/12/09 07:25:43;;;;;;;;;;;3.70;99.90;;;;;;5062516;28;20042;-64
2022/12/09 07:28:08;;;;;;;;;;;3.60;99.90;;;;;;5054144;28;19924;-65
2022/12/09 07:30:35;;;;;;;;;;;3.60;99.90;;;;;;5055815;28;19921;-65
2022/12/09 07:33:01;;;;;;;;;;;3.60;99.90;;;;;;5056991;28;20399;-65
2022/12/09 07:35:26;;;;;;;;;;;3.60;99.90;;;;;;5059397;28;19912;-65
2022/12/09 07:37:54;;;;;;;;;;;3.60;99.90;;;;;;5061900;28;20350;-64
2022/12/09 07:40:19;;;;;;;;;;;3.60;99.90;;;;;;5056680;28;19999;-64
2022/12/09 07:42:45;;;;;;;;;;;3.70;99.90;;;;;;5061616;28;20313;-65
2022/12/09 07:45:10;;;;;;;;;;;3.70;99.90;;;;;;5057162;28;19916;-65
2022/12/09 07:47:36;;;;;;;;;;;3.60;99.90;;;;;;5054003;28;19920;-65
2022/12/09 07:50:01;;;;;;;;;;;3.50;99.90;;;;;;5057701;28;19939;-64
2022/12/09 07:52:26;;;;;;;;;;;3.50;99.90;;;;;;5058070;28;19913;-65
2022/12/09 07:54:53;;;;;;;;;;;3.60;99.90;;;;;;5058922;28;19925;-64
2022/12/09 07:57:19;;;;;;;;;;;3.70;99.90;;;;;;5060635;28;20435;-64
2022/12/09 07:59:44;;;;;;;;;;;3.70;99.90;;;;;;5055191;28;20003;-65
2022/12/09 08:02:10;;;;;;;;;;;3.70;99.90;;;;;;5055990;28;19971;-64
2022/12/09 08:04:35;;;;;;;;;;;3.80;99.90;;;;;;5056440;28;19927;-64
2022/12/09 08:07:01;;;;;;;;;;;3.70;99.90;;;;;;5058718;28;19967;-65
2022/12/09 08:09:26;;;;;;;;;;;3.80;99.90;;;;;;5055173;28;19913;-65
2022/12/09 08:11:52;;;;;;;;;;;3.80;99.90;;;;;;5057676;28;20003;-65
2022/12/09 08:14:17;;;;;;;;;;;3.70;99.90;;;;;;5053963;28;19966;-64
2022/12/09 08:16:43;;;;;;;;;;;3.80;99.90;;;;;;5054219;28;19931;-65
2022/12/09 08:19:08;;;;;;;;;;;3.80;99.90;;;;;;5056163;28;20006;-65
2022/12/09 08:21:34;;;;;;;;;;;3.70;99.90;;;;;;5058219;28;20007;-65
2022/12/09 08:24:00;;;;;;;;;;;4.00;99.90;;;;;;5055483;28;19916;-65
2022/12/09 08:26:27;;;;;;;;;;;4.00;99.90;;;;;;5056492;28;19951;-65
2022/12/09 08:28:52;;;;;;;;;;;4.00;99.90;;;;;;5048814;28;19927;-64
2022/12/09 08:31:19;;;;;;;;;;;3.90;99.90;;;;;;5041178;28;19916;-65
2022/12/09 08:33:45;;;;;;;;;;;4.00;99.90;;;;;;5058286;28;19913;-65
2022/12/09 08:36:12;;;;;;;;;;;4.00;99.90;;;;;;5055940;28;19916;-64
2022/12/09 08:38:38;;;;;;;;;;;3.90;99.90;;;;;;5053858;28;20456;-64
2022/12/09 08:41:11;;;;;;;;;;;3.80;99.90;;;;;;5054963;28;19921;-64
2022/12/09 08:43:37;;;;;;;;;;;3.90;99.90;;;;;;5051105;28;19951;-65
2022/12/09 08:46:02;;;;;;;;;;;3.90;99.90;;;;;;5055676;28;20503;-65
2022/12/09 08:48:28;;;;;;;;;;;3.90;99.90;;;;;;5055803;28;19956;-64
2022/12/09 08:50:53;;;;;;;;;;;4.00;99.90;;;;;;5060661;28;19917;-64
2022/12/09 08:53:18;;;;;;;;;;;4.00;99.90;;;;;;5057905;28;20391;-64
2022/12/09 08:55:44;;;;;;;;;;;4.10;99.90;;;;;;5058856;28;19916;-65
2022/12/09 08:58:09;;;;;;;;;;;4.10;99.90;;;;;;5042922;28;19924;-63
2022/12/09 09:00:35;;;;;;;;;;;4.00;99.90;;;;;;5052696;28;19928;-64
2022/12/09 09:03:00;;;;;;;;;;;4.00;99.90;;;;;;5051573;28;20066;-64
2022/12/09 09:05:26;;;;;;;;;;;3.90;99.90;;;;;;5051359;28;19920;-64
2022/12/09 09:07:51;;;;;;;;;;;4.00;99.90;;;;;;5054084;28;20330;-64
2022/12/09 09:10:17;;;;;;;;;;;4.20;99.90;;;;;;5058348;28;19966;-64
2022/12/09 09:12:42;;;;;;;;;;;4.20;99.90;;;;;;5053996;28;19924;-64
2022/12/09 09:15:08;;;;;;;;;;;4.10;99.90;;;;;;5057709;28;19944;-64
2022/12/09 09:17:34;;;;;;;;;;;4.10;99.90;;;;;;5053486;28;19913;-64
2022/12/09 09:19:59;;;;;;;;;;;4.10;99.90;;;;;;5059082;28;20011;-64
2022/12/09 09:22:26;;;;;;;;;;;4.00;99.90;;;;;;5057929;28;20005;-64
2022/12/09 09:24:52;;;;;;;;;;;4.30;99.90;;;;;;5056747;28;19924;-64
2022/12/09 09:27:18;;;;;;;;;;;4.60;99.90;;;;;;5058229;28;19916;-64
2022/12/09 09:29:44;;;;;;;;;;;4.40;99.90;;;;;;5057227;28;19961;-64
2022/12/09 09:32:09;;;;;;;;;;;4.40;99.90;;;;;;5059628;28;20383;-64
2022/12/09 09:34:35;;;;;;;;;;;4.30;99.90;;;;;;5058046;28;20605;-64
2022/12/09 09:37:00;;;;;;;;;;;4.20;99.90;;;;;;5059476;28;20565;-64
2022/12/09 09:39:26;;;;;;;;;;;4.30;99.90;;;;;;5055390;28;19982;-64
2022/12/09 09:41:54;;;;;;;;;;;4.50;99.90;;;;;;5058747;28;19920;-64
2022/12/09 09:44:22;;;;;;;;;;;4.60;99.90;;;;;;5054221;28;19935;-65
2022/12/09 09:46:49;;;;;;;;;;;4.50;99.90;;;;;;5058112;28;19983;-64
2022/12/09 09:49:25;;;;;;;;;;;4.60;99.90;;;;;;5057401;28;19912;-64
2022/12/09 09:51:51;;;;;;;;;;;4.70;99.90;;;;;;5055149;28;19913;-64
2022/12/09 09:54:16;;;;;;;;;;;4.90;99.90;;;;;;5057868;28;19923;-64
2022/12/09 09:56:45;;;;;;;;;;;4.80;99.90;;;;;;5055639;28;19916;-64
2022/12/09 09:59:29;;;;;;;;;;;4.70;99.90;;;;;;5055497;28;19913;-64
2022/12/09 10:02:06;;;;;;;;;;;4.40;99.90;;;;;;5054523;28;19927;-64
2022/12/09 10:04:32;;;;;;;;;;;4.50;99.90;;;;;;5042657;28;19917;-64
2022/12/09 10:07:30;;;;;;;;;;;4.70;99.90;;;;;;5038376;28;19995;-64
2022/12/09 10:10:01;;;;;;;;;;;4.80;99.90;;;;;;5024385;28;19913;-64
2022/12/09 10:12:30;;;;;;;;;;;4.60;99.90;;;;;;5033446;28;20054;-64
2022/12/09 10:14:57;;;;;;;;;;;4.80;99.90;;;;;;5048797;28;20003;-64
2022/12/09 10:17:27;;;;;;;;;;;4.60;99.90;;;;;;5042588;28;19920;-64
2022/12/09 10:20:02;;;;;;;;;;;4.60;99.90;;;;;;5048535;28;19934;-64
2022/12/09 10:22:29;;;;;;;;;;;4.50;99.90;;;;;;5032932;28;20753;-64
2022/12/09 10:24:58;;;;;;;;;;;4.70;99.90;;;;;;5037511;28;19913;-64
2022/12/09 10:27:33;;;;;;;;;;;5.00;99.90;;;;;;5032893;28;20435;-64
2022/12/09 10:30:00;;;;;;;;;;;4.90;99.90;;;;;;5049746;28;20459;-64
2022/12/09 10:32:28;;;;;;;;;;;4.70;99.90;;;;;;5035043;28;19928;-64
2022/12/09 10:34:54;;;;;;;;;;;4.60;99.90;;;;;;5037671;28;20529;-63
2022/12/09 10:37:24;;;;;;;;;;;4.90;99.90;;;;;;5036567;28;19929;-63
2022/12/09 10:40:03;;;;;;;;;;;4.80;99.90;;;;;;5033972;28;19987;-63
2022/12/09 10:45:14;;;;;;;;;;;4.30;99.90;;;;;;5037775;28;20451;-63
2022/12/09 10:47:39;;;;;;;;;;;4.40;99.90;;;;;;5039658;28;19917;-63
2022/12/09 10:50:05;;;;;;;;;;;4.30;99.90;;;;;;5039816;28;19921;-63
2022/12/09 10:52:39;;;;;;;;;;;4.70;99.90;;;;;;5039559;28;19920;-64
2022/12/09 10:55:05;;;;;;;;;;;4.70;99.90;;;;;;5039247;28;19920;-64
2022/12/09 10:57:30;;;;;;;;;;;4.60;99.90;;;;;;5036470;28;20396;-64
2022/12/09 11:00:25;;;;;;;;;;;4.80;99.90;;;;;;5033466;28;19948;-64
2022/12/09 11:02:52;;;;;;;;;;;4.90;99.90;;;;;;5038936;28;19916;-63
2022/12/09 11:05:21;;;;;;;;;;;4.70;99.90;;;;;;5031859;28;20029;-64
2022/12/09 11:07:48;;;;;;;;;;;4.90;99.90;;;;;;5038261;28;20383;-64
2022/12/09 11:10:17;;;;;;;;;;;4.80;99.90;;;;;;5039444;28;19956;-64
2022/12/09 11:12:43;;;;;;;;;;;4.80;99.90;;;;;;5036174;28;19913;-64
2022/12/09 11:15:34;;;;;;;;;;;4.70;99.90;;;;;;5038091;28;19959;-64
2022/12/09 11:18:24;;;;;;;;;;;4.70;99.90;;;;;;5031558;28;20068;-64
2022/12/09 11:20:53;;;;;;;;;;;4.60;99.90;;;;;;5037054;28;19919;-64
2022/12/09 11:23:19;;;;;;;;;;;4.90;99.90;;;;;;5038237;28;20368;-64
2022/12/09 11:25:57;;;;;;;;;;;4.90;99.90;;;;;;5035625;28;20039;-64
2022/12/09 11:28:28;;;;;;;;;;;5.00;99.90;;;;;;5037671;28;19987;-64
2022/12/09 11:30:58;;;;;;;;;;;5.10;99.90;;;;;;5037807;28;19960;-64
2022/12/09 11:33:31;;;;;;;;;;;5.00;99.90;;;;;;5037504;28;19917;-64
2022/12/09 11:36:03;;;;;;;;;;;4.90;99.90;;;;;;5042059;28;20432;-64
2022/12/09 11:38:33;;;;;;;;;;;4.90;99.90;;;;;;5041326;28;19924;-64
2022/12/09 11:41:01;;;;;;;;;;;4.80;99.90;;;;;;5036932;28;20157;-64
2022/12/09 11:43:32;;;;;;;;;;;4.90;99.90;;;;;;5037580;28;19925;-64
2022/12/09 11:45:58;;;;;;;;;;;4.90;99.90;;;;;;5037595;28;19936;-63
2022/12/09 11:48:28;;;;;;;;;;;4.90;99.90;;;;;;5037477;28;20520;-63
2022/12/09 11:50:54;;;;;;;;;;;5.00;99.90;;;;;;5046417;28;19925;-64
2022/12/09 11:53:30;;;;;;;;;;;4.50;99.90;;;;;;5039934;28;19916;-63
2022/12/09 11:56:02;;;;;;;;;;;4.80;99.90;;;;;;5038922;28;19924;-63
2022/12/09 11:58:43;;;;;;;;;;;4.50;99.90;;;;;;5032435;28;19923;-64
2022/12/09 12:01:14;;;;;;;;;;;4.30;99.90;;;;;;5034367;28;19948;-64
2022/12/09 12:03:43;;;;;;;;;;;4.40;99.90;;;;;;5040795;28;20387;-64
2022/12/09 12:06:19;;;;;;;;;;;4.50;99.90;;;;;;5039967;28;20069;-65
2022/12/09 12:08:48;;;;;;;;;;;4.20;99.90;;;;;;5032660;28;19921;-65
2022/12/09 12:11:18;;;;;;;;;;;4.30;99.90;;;;;;5032398;28;20526;-65
2022/12/09 12:13:44;;;;;;;;;;;4.30;99.90;;;;;;5034125;28;20336;-64
2022/12/09 12:16:20;;;;;;;;;;;4.20;99.90;;;;;;5025182;28;20300;-64
2022/12/09 12:18:54;;;;;;;;;;;4.10;99.90;;;;;;5037627;28;20584;-64
2022/12/09 12:21:27;;;;;;;;;;;4.10;99.90;;;;;;5035428;28;19971;-64
2022/12/09 12:24:02;;;;;;;;;;;4.20;99.90;;;;;;5038178;28;20345;-64
2022/12/09 12:26:38;;;;;;;;;;;3.90;99.90;;;;;;5034571;28;19920;-64
2022/12/09 12:29:22;;;;;;;;;;;4.80;99.90;;;;;;5031509;28;19942;-64
2022/12/09 12:31:53;;;;;;;;;;;4.50;99.90;;;;;;5036921;28;20012;-64
2022/12/09 12:34:44;;;;;;;;;;;4.30;99.90;;;;;;5022003;28;19920;-64
2022/12/09 12:37:15;;;;;;;;;;;4.30;99.90;;;;;;5035617;28;19921;-64
2022/12/09 12:39:50;;;;;;;;;;;4.20;99.90;;;;;;5039906;28;20384;-64
2022/12/09 12:42:15;;;;;;;;;;;4.30;99.90;;;;;;5037019;28;19923;-64
2022/12/09 12:47:35;;;;;;;;;;;4.60;99.90;;;;;;5056304;28;19958;-64
2022/12/09 12:50:03;;;;;;;;;;;4.50;99.90;;;;;;5064280;28;19924;-65
2022/12/09 12:52:34;;;;;;;;;;;4.60;99.90;;;;;;5051082;28;20172;-64
2022/12/09 12:55:20;;;;;;;;;;;4.40;99.90;;;;;;5037265;28;20004;-65
2022/12/09 12:57:54;;;;;;;;;;;4.40;99.90;;;;;;5027746;28;20505;-64
2022/12/09 13:00:22;;;;;;;;;;;4.40;99.90;;;;;;5037526;28;19923;-64
2022/12/09 13:03:00;;;;;;;;;;;4.30;99.90;;;;;;5036122;28;20020;-65
2022/12/09 13:05:33;;;;;;;;;;;4.30;99.90;;;;;;5038457;28;19924;-64
2022/12/09 13:08:03;;;;;;;;;;;4.30;99.90;;;;;;5035567;28;19921;-64
2022/12/09 13:10:31;;;;;;;;;;;4.40;99.90;;;;;;5035963;28;19968;-64
2022/12/09 13:12:58;;;;;;;;;;;4.50;99.90;;;;;;5038764;28;20019;-64
2022/12/09 13:15:50;;;;;;;;;;;4.70;99.90;;;;;;5035135;28;20004;-64
2022/12/09 13:18:18;;;;;;;;;;;4.80;99.90;;;;;;5027601;28;20376;-64
2022/12/09 13:20:47;;;;;;;;;;;4.70;99.90;;;;;;5032806;28;20332;-64
2022/12/09 13:23:12;;;;;;;;;;;4.50;99.90;;;;;;5035848;28;19924;-64
2022/12/09 13:25:47;;;;;;;;;;;4.20;99.90;;;;;;5032596;28;20335;-64
2022/12/09 13:28:19;;;;;;;;;;;4.30;99.90;;;;;;5033228;28;19928;-64
2022/12/09 13:30:55;;;;;;;;;;;4.30;99.90;;;;;;5036486;28;19925;-64
2022/12/09 13:33:34;;;;;;;;;;;4.30;99.90;;;;;;5034814;28;19917;-64
2022/12/09 13:36:23;;;;;;;;;;;4.20;99.90;;;;;;5038932;28;19913;-63
2022/12/09 13:38:49;;;;;;;;;;;4.00;99.90;;;;;;5028536;28;19963;-64
2022/12/09 13:41:29;;;;;;;;;;;4.20;99.90;;;;;;5036872;28;20110;-64
2022/12/09 13:44:06;;;;;;;;;;;4.20;99.90;;;;;;5036859;28;19921;-64
2022/12/09 13:46:32;;;;;;;;;;;4.40;99.90;;;;;;5028801;28;19925;-64
2022/12/09 13:49:07;;;;;;;;;;;4.30;99.90;;;;;;5041630;28;19971;-64
2022/12/09 13:51:42;;;;;;;;;;;4.20;99.90;;;;;;5032964;28;20000;-64
2022/12/09 13:54:13;;;;;;;;;;;4.30;99.90;;;;;;5036575;28;19921;-64
2022/12/09 13:56:38;;;;;;;;;;;4.20;99.90;;;;;;5041168;28;19921;-64
2022/12/09 13:59:04;;;;;;;;;;;4.00;99.90;;;;;;5037451;28;20315;-68
2022/12/09 14:01:33;;;;;;;;;;;4.00;99.90;;;;;;5037335;28;20422;-63
2022/12/09 14:04:13;;;;;;;;;;;4.00;99.90;;;;;;5034292;28;19920;-64
2022/12/09 14:06:45;;;;;;;;;;;4.00;99.90;;;;;;5049862;28;20383;-65
2022/12/09 14:09:29;;;;;;;;;;;3.80;99.90;;;;;;5057045;28;20265;-64
2022/12/09 14:11:59;;;;;;;;;;;3.80;99.90;;;;;;5058658;28;20399;-65
2022/12/09 14:14:24;;;;;;;;;;;3.90;99.90;;;;;;5055620;28;19959;-65
2022/12/09 14:16:51;;;;;;;;;;;3.90;99.90;;;;;;5058370;28;20394;-65
2022/12/09 14:19:22;;;;;;;;;;;3.80;99.90;;;;;;5056374;28;19978;-65
2022/12/09 14:22:11;;;;;;;;;;;3.80;99.90;;;;;;5059288;28;19977;-65
2022/12/09 14:24:37;;;;;;;;;;;3.80;99.90;;;;;;5030570;28;19917;-65
2022/12/09 14:27:03;;;;;;;;;;;3.70;99.90;;;;;;5041923;28;20228;-65
2022/12/09 14:29:45;;;;;;;;;;;3.70;99.90;;;;;;5041291;28;19921;-65
2022/12/09 14:32:26;;;;;;;;;;;3.80;99.90;;;;;;5041357;28;20144;-65
2022/12/09 14:35:03;;;;;;;;;;;3.70;99.90;;;;;;5040399;28;20299;-65
2022/12/09 14:37:32;;;;;;;;;;;3.70;99.90;;;;;;5040141;28;19917;-64
2022/12/09 14:40:01;;;;;;;;;;;3.80;99.90;;;;;;5041984;28;19913;-65
2022/12/09 14:42:34;;;;;;;;;;;3.80;99.90;;;;;;5039144;28;19935;-65